Greenslough, Ireland
Current Conditions -  °F | °C
As of 3:30 PM on Friday 24 Oct 2014 (Local Time) from EIDL Reporting Station
Few Clouds Few Clouds  
Wind Chill: 54°   Ceiling: Unl
Heat Index: 54°   Visibility: 6mi
Dew Point: 45°   Wind: 20mph
Humidity: 72%   Direction: 240°WSW
Pressure: 29.71"   Gusts: NA
Location:  55.12°N, 7.9°W
Report Text: EIDL 241530Z 24017KT 9999 FEW026 12/07 Q1006
Loading
Personal Weather Stations






























Interactive Weather Map
Tropical Storm Tracking
New forecast layout! Learn more

10-Day Weather Forecast

Advertisements
Track Severe Weather on mobile